sensor_id;sensor_type;location;lat;lon;timestamp;temperature;humidity
37594;DHT22;23441;50.856;6.076;2023-04-24T00:00:23;9.40;99.90
37594;DHT22;23441;50.856;6.076;2023-04-24T00:02:49;9.40;99.90
37594;DHT22;23441;50.856;6.076;2023-04-24T00:05:15;9.40;99.90
37594;DHT22;23441;50.856;6.076;2023-04-24T00:07:43;9.30;99.90
37594;DHT22;23441;50.856;6.076;2023-04-24T00:10:09;9.20;99.90
37594;DHT22;23441;50.856;6.076;2023-04-24T00:12:35;9.20;99.90
37594;DHT22;23441;50.856;6.076;2023-04-24T00:15:02;9.20;99.90
37594;DHT22;23441;50.856;6.076;2023-04-24T00:17:28;9.10;99.90
37594;DHT22;23441;50.856;6.076;2023-04-24T00:19:54;9.10;99.90
37594;DHT22;23441;50.856;6.076;2023-04-24T00:22:24;9.10;99.90
37594;DHT22;23441;50.856;6.076;2023-04-24T00:24:50;9.10;99.90
37594;DHT22;23441;50.856;6.076;2023-04-24T00:27:16;9.00;99.90
37594;DHT22;23441;50.856;6.076;2023-04-24T00:29:41;9.00;99.90
37594;DHT22;23441;50.856;6.076;2023-04-24T00:32:07;9.00;99.90
37594;DHT22;23441;50.856;6.076;2023-04-24T00:34:33;8.90;99.90
37594;DHT22;23441;50.856;6.076;2023-04-24T00:36:58;8.90;99.90
37594;DHT22;23441;50.856;6.076;2023-04-24T00:39:24;8.90;99.90
37594;DHT22;23441;50.856;6.076;2023-04-24T00:41:50;8.90;99.90
37594;DHT22;23441;50.856;6.076;2023-04-24T00:44:16;8.90;99.90
37594;DHT22;23441;50.856;6.076;2023-04-24T00:46:43;8.80;99.90
37594;DHT22;23441;50.856;6.076;2023-04-24T00:49:08;8.80;99.90
37594;DHT22;23441;50.856;6.076;2023-04-24T00:51:34;8.80;99.90
37594;DHT22;23441;50.856;6.076;2023-04-24T00:54:00;8.80;99.90
37594;DHT22;23441;50.856;6.076;2023-04-24T00:56:27;8.80;99.90
37594;DHT22;23441;50.856;6.076;2023-04-24T00:58:53;8.80;99.90
37594;DHT22;23441;50.856;6.076;2023-04-24T01:01:20;8.80;99.90
37594;DHT22;23441;50.856;6.076;2023-04-24T01:03:46;8.80;99.90
37594;DHT22;23441;50.856;6.076;2023-04-24T01:06:13;8.80;99.90
37594;DHT22;23441;50.856;6.076;2023-04-24T01:08:39;8.80;99.90
37594;DHT22;23441;50.856;6.076;2023-04-24T01:11:06;8.80;99.90
37594;DHT22;23441;50.856;6.076;2023-04-24T01:13:33;8.80;99.90
37594;DHT22;23441;50.856;6.076;2023-04-24T01:15:59;8.70;99.90
37594;DHT22;23441;50.856;6.076;2023-04-24T01:18:25;8.70;99.90
37594;DHT22;23441;50.856;6.076;2023-04-24T01:20:53;8.70;99.90
37594;DHT22;23441;50.856;6.076;2023-04-24T01:23:21;8.70;99.90
37594;DHT22;23441;50.856;6.076;2023-04-24T01:25:49;8.70;99.90
37594;DHT22;23441;50.856;6.076;2023-04-24T01:28:16;8.70;99.90
37594;DHT22;23441;50.856;6.076;2023-04-24T01:30:42;8.80;99.90
37594;DHT22;23441;50.856;6.076;2023-04-24T01:33:08;8.70;99.90
37594;DHT22;23441;50.856;6.076;2023-04-24T01:35:34;8.70;99.90
37594;DHT22;23441;50.856;6.076;2023-04-24T01:38:01;8.70;99.90
37594;DHT22;23441;50.856;6.076;2023-04-24T01:40:27;8.70;99.90
37594;DHT22;23441;50.856;6.076;2023-04-24T01:42:53;8.80;99.90
37594;DHT22;23441;50.856;6.076;2023-04-24T01:45:18;8.80;99.90
37594;DHT22;23441;50.856;6.076;2023-04-24T01:47:45;8.80;99.90
37594;DHT22;23441;50.856;6.076;2023-04-24T01:50:11;8.80;99.90
37594;DHT22;23441;50.856;6.076;2023-04-24T01:52:37;8.80;99.90
37594;DHT22;23441;50.856;6.076;2023-04-24T01:55:03;8.80;99.90
37594;DHT22;23441;50.856;6.076;2023-04-24T01:57:30;8.70;99.90
37594;DHT22;23441;50.856;6.076;2023-04-24T01:59:56;8.80;99.90
37594;DHT22;23441;50.856;6.076;2023-04-24T02:02:23;8.80;99.90
37594;DHT22;23441;50.856;6.076;2023-04-24T02:04:56;8.70;99.90
37594;DHT22;23441;50.856;6.076;2023-04-24T02:07:22;8.80;99.90
37594;DHT22;23441;50.856;6.076;2023-04-24T02:09:48;8.70;99.90
37594;DHT22;23441;50.856;6.076;2023-04-24T02:12:14;8.70;99.90
37594;DHT22;23441;50.856;6.076;2023-04-24T02:14:40;8.70;99.90
37594;DHT22;23441;50.856;6.076;2023-04-24T02:17:06;8.70;99.90
37594;DHT22;23441;50.856;6.076;2023-04-24T02:19:32;8.70;99.90
37594;DHT22;23441;50.856;6.076;2023-04-24T02:21:57;8.70;99.90
37594;DHT22;23441;50.856;6.076;2023-04-24T02:24:23;8.70;99.90
37594;DHT22;23441;50.856;6.076;2023-04-24T02:26:48;8.70;99.90
37594;DHT22;23441;50.856;6.076;2023-04-24T02:29:14;8.70;99.90
37594;DHT22;23441;50.856;6.076;2023-04-24T02:31:40;8.70;99.90
37594;DHT22;23441;50.856;6.076;2023-04-24T02:34:06;8.70;99.90
37594;DHT22;23441;50.856;6.076;2023-04-24T02:36:32;8.70;99.90
37594;DHT22;23441;50.856;6.076;2023-04-24T02:38:57;8.70;99.90
37594;DHT22;23441;50.856;6.076;2023-04-24T02:41:23;8.70;99.90
37594;DHT22;23441;50.856;6.076;2023-04-24T02:43:48;8.70;99.90
37594;DHT22;23441;50.856;6.076;2023-04-24T02:46:15;8.60;99.90
37594;DHT22;23441;50.856;6.076;2023-04-24T02:48:40;8.70;99.90
37594;DHT22;23441;50.856;6.076;2023-04-24T02:51:06;8.70;99.90
37594;DHT22;23441;50.856;6.076;2023-04-24T02:53:32;8.60;99.90
37594;DHT22;23441;50.856;6.076;2023-04-24T02:55:58;8.70;99.90
37594;DHT22;23441;50.856;6.076;2023-04-24T02:58:23;8.70;99.90
37594;DHT22;23441;50.856;6.076;2023-04-24T03:00:53;8.60;99.90
37594;DHT22;23441;50.856;6.076;2023-04-24T03:03:19;8.70;99.90
37594;DHT22;23441;50.856;6.076;2023-04-24T03:05:45;8.60;99.90
37594;DHT22;23441;50.856;6.076;2023-04-24T03:08:11;8.60;99.90
37594;DHT22;23441;50.856;6.076;2023-04-24T03:10:36;8.60;99.90
37594;DHT22;23441;50.856;6.076;2023-04-24T03:13:02;8.50;99.90
37594;DHT22;23441;50.856;6.076;2023-04-24T03:15:27;8.50;99.90
37594;DHT22;23441;50.856;6.076;2023-04-24T03:17:53;8.40;99.90
37594;DHT22;23441;50.856;6.076;2023-04-24T03:20:19;8.40;99.90
37594;DHT22;23441;50.856;6.076;2023-04-24T03:22:44;8.40;99.90
37594;DHT22;23441;50.856;6.076;2023-04-24T03:25:10;8.40;99.90
37594;DHT22;23441;50.856;6.076;2023-04-24T03:27:35;8.50;99.90
37594;DHT22;23441;50.856;6.076;2023-04-24T03:30:01;8.50;99.90
37594;DHT22;23441;50.856;6.076;2023-04-24T03:32:27;8.40;99.90
37594;DHT22;23441;50.856;6.076;2023-04-24T03:34:53;8.40;99.90
37594;DHT22;23441;50.856;6.076;2023-04-24T03:37:18;8.40;99.90
37594;DHT22;23441;50.856;6.076;2023-04-24T03:39:44;8.30;99.90
37594;DHT22;23441;50.856;6.076;2023-04-24T03:42:10;8.30;99.90
37594;DHT22;23441;50.856;6.076;2023-04-24T03:44:36;8.30;99.90
37594;DHT22;23441;50.856;6.076;2023-04-24T03:47:01;8.20;99.90
37594;DHT22;23441;50.856;6.076;2023-04-24T03:49:27;8.20;99.90
37594;DHT22;23441;50.856;6.076;2023-04-24T03:51:53;8.30;99.90
37594;DHT22;23441;50.856;6.076;2023-04-24T03:54:19;8.20;99.90
37594;DHT22;23441;50.856;6.076;2023-04-24T03:56:45;8.20;99.90
37594;DHT22;23441;50.856;6.076;2023-04-24T03:59:11;8.20;99.90
37594;DHT22;23441;50.856;6.076;2023-04-24T04:01:37;8.10;99.90
37594;DHT22;23441;50.856;6.076;2023-04-24T04:04:08;8.10;99.90
37594;DHT22;23441;50.856;6.076;2023-04-24T04:06:34;8.00;99.90
37594;DHT22;23441;50.856;6.076;2023-04-24T04:09:01;8.00;99.90
37594;DHT22;23441;50.856;6.076;2023-04-24T04:11:28;8.00;99.90
37594;DHT22;23441;50.856;6.076;2023-04-24T04:13:54;8.10;99.90
37594;DHT22;23441;50.856;6.076;2023-04-24T04:16:20;8.00;99.90
37594;DHT22;23441;50.856;6.076;2023-04-24T04:18:46;8.10;99.90
37594;DHT22;23441;50.856;6.076;2023-04-24T04:21:11;8.10;99.90
37594;DHT22;23441;50.856;6.076;2023-04-24T04:23:37;8.10;99.90
37594;DHT22;23441;50.856;6.076;2023-04-24T04:26:03;8.10;99.90
37594;DHT22;23441;50.856;6.076;2023-04-24T04:28:29;8.10;99.90
37594;DHT22;23441;50.856;6.076;2023-04-24T04:30:58;8.00;99.90
37594;DHT22;23441;50.856;6.076;2023-04-24T04:33:24;8.00;99.90
37594;DHT22;23441;50.856;6.076;2023-04-24T04:35:50;8.00;99.90
37594;DHT22;23441;50.856;6.076;2023-04-24T04:38:19;8.00;99.90
37594;DHT22;23441;50.856;6.076;2023-04-24T04:40:45;8.10;99.90
37594;DHT22;23441;50.856;6.076;2023-04-24T04:43:11;8.00;99.90
37594;DHT22;23441;50.856;6.076;2023-04-24T04:45:39;8.00;99.90
37594;DHT22;23441;50.856;6.076;2023-04-24T04:48:06;8.00;99.90
37594;DHT22;23441;50.856;6.076;2023-04-24T04:50:38;8.00;99.90
37594;DHT22;23441;50.856;6.076;2023-04-24T04:53:04;7.90;99.90
37594;DHT22;23441;50.856;6.076;2023-04-24T04:55:29;7.90;99.90
37594;DHT22;23441;50.856;6.076;2023-04-24T04:57:55;7.90;99.90
37594;DHT22;23441;50.856;6.076;2023-04-24T05:00:21;7.90;99.90
37594;DHT22;23441;50.856;6.076;2023-04-24T05:02:47;7.90;99.90
37594;DHT22;23441;50.856;6.076;2023-04-24T05:05:12;8.00;99.90
37594;DHT22;23441;50.856;6.076;2023-04-24T05:07:38;7.80;99.90
37594;DHT22;23441;50.856;6.076;2023-04-24T05:10:04;7.80;99.90
37594;DHT22;23441;50.856;6.076;2023-04-24T05:12:30;7.80;99.90
37594;DHT22;23441;50.856;6.076;2023-04-24T05:14:55;7.80;99.90
37594;DHT22;23441;50.856;6.076;2023-04-24T05:17:21;7.90;99.90
37594;DHT22;23441;50.856;6.076;2023-04-24T05:19:47;7.90;99.90
37594;DHT22;23441;50.856;6.076;2023-04-24T05:22:13;7.90;99.90
37594;DHT22;23441;50.856;6.076;2023-04-24T05:24:39;8.00;99.90
37594;DHT22;23441;50.856;6.076;2023-04-24T05:27:04;8.00;99.90
37594;DHT22;23441;50.856;6.076;2023-04-24T05:29:31;7.90;99.90
37594;DHT22;23441;50.856;6.076;2023-04-24T05:31:57;7.90;99.90
37594;DHT22;23441;50.856;6.076;2023-04-24T05:34:23;7.90;99.90
37594;DHT22;23441;50.856;6.076;2023-04-24T05:36:49;7.80;99.90
37594;DHT22;23441;50.856;6.076;2023-04-24T05:39:16;7.80;99.90
37594;DHT22;23441;50.856;6.076;2023-04-24T05:41:42;7.70;99.90
37594;DHT22;23441;50.856;6.076;2023-04-24T05:44:07;7.70;99.90
37594;DHT22;23441;50.856;6.076;2023-04-24T05:46:33;7.60;99.90
37594;DHT22;23441;50.856;6.076;2023-04-24T05:48:58;7.60;99.90
37594;DHT22;23441;50.856;6.076;2023-04-24T05:51:24;7.60;99.90
37594;DHT22;23441;50.856;6.076;2023-04-24T05:53:51;7.60;99.90
37594;DHT22;23441;50.856;6.076;2023-04-24T05:56:17;7.60;99.90
37594;DHT22;23441;50.856;6.076;2023-04-24T05:58:42;7.50;99.90
37594;DHT22;23441;50.856;6.076;2023-04-24T06:01:08;7.50;99.90
37594;DHT22;23441;50.856;6.076;2023-04-24T06:03:34;7.60;99.90
37594;DHT22;23441;50.856;6.076;2023-04-24T06:05:59;7.50;99.90
37594;DHT22;23441;50.856;6.076;2023-04-24T06:08:25;7.50;99.90
37594;DHT22;23441;50.856;6.076;2023-04-24T06:10:51;7.50;99.90
37594;DHT22;23441;50.856;6.076;2023-04-24T06:13:17;7.50;99.90
37594;DHT22;23441;50.856;6.076;2023-04-24T06:15:43;7.50;99.90
37594;DHT22;23441;50.856;6.076;2023-04-24T06:18:09;7.50;99.90
37594;DHT22;23441;50.856;6.076;2023-04-24T06:20:38;7.60;99.90
37594;DHT22;23441;50.856;6.076;2023-04-24T06:23:04;7.60;99.90
37594;DHT22;23441;50.856;6.076;2023-04-24T06:25:29;7.60;99.90
37594;DHT22;23441;50.856;6.076;2023-04-24T06:27:56;7.60;99.90
37594;DHT22;23441;50.856;6.076;2023-04-24T06:30:22;7.50;99.90
37594;DHT22;23441;50.856;6.076;2023-04-24T06:32:48;7.60;99.90
37594;DHT22;23441;50.856;6.076;2023-04-24T06:35:13;7.50;99.90
37594;DHT22;23441;50.856;6.076;2023-04-24T06:37:40;7.60;99.90
37594;DHT22;23441;50.856;6.076;2023-04-24T06:40:07;7.50;99.90
37594;DHT22;23441;50.856;6.076;2023-04-24T06:42:33;7.40;99.90
37594;DHT22;23441;50.856;6.076;2023-04-24T06:45:00;7.40;99.90
37594;DHT22;23441;50.856;6.076;2023-04-24T06:47:26;7.30;99.90
37594;DHT22;23441;50.856;6.076;2023-04-24T06:49:51;7.30;99.90
37594;DHT22;23441;50.856;6.076;2023-04-24T06:52:18;7.20;99.90
37594;DHT22;23441;50.856;6.076;2023-04-24T06:54:44;7.20;99.90
37594;DHT22;23441;50.856;6.076;2023-04-24T06:57:10;7.20;99.90
37594;DHT22;23441;50.856;6.076;2023-04-24T06:59:36;7.10;99.90
37594;DHT22;23441;50.856;6.076;2023-04-24T07:02:02;7.10;99.90
37594;DHT22;23441;50.856;6.076;2023-04-24T07:04:28;7.10;99.90
37594;DHT22;23441;50.856;6.076;2023-04-24T07:06:54;7.10;99.90
37594;DHT22;23441;50.856;6.076;2023-04-24T07:09:21;7.10;99.90
37594;DHT22;23441;50.856;6.076;2023-04-24T07:11:49;7.00;99.90
37594;DHT22;23441;50.856;6.076;2023-04-24T07:14:15;7.10;99.90
37594;DHT22;23441;50.856;6.076;2023-04-24T07:16:42;7.10;99.90
37594;DHT22;23441;50.856;6.076;2023-04-24T07:19:08;7.10;99.90
37594;DHT22;23441;50.856;6.076;2023-04-24T07:21:33;7.10;99.90
37594;DHT22;23441;50.856;6.076;2023-04-24T07:23:59;7.10;99.90
37594;DHT22;23441;50.856;6.076;2023-04-24T07:26:26;7.10;99.90
37594;DHT22;23441;50.856;6.076;2023-04-24T07:28:52;7.10;99.90
37594;DHT22;23441;50.856;6.076;2023-04-24T07:31:18;7.00;99.90
37594;DHT22;23441;50.856;6.076;2023-04-24T07:33:44;7.00;99.90
37594;DHT22;23441;50.856;6.076;2023-04-24T07:36:09;7.00;99.90
37594;DHT22;23441;50.856;6.076;2023-04-24T07:38:43;7.00;99.90
37594;DHT22;23441;50.856;6.076;2023-04-24T07:41:09;7.00;99.90
37594;DHT22;23441;50.856;6.076;2023-04-24T07:43:35;6.90;99.90
37594;DHT22;23441;50.856;6.076;2023-04-24T07:46:00;6.90;99.90
37594;DHT22;23441;50.856;6.076;2023-04-24T07:48:26;6.90;99.90
37594;DHT22;23441;50.856;6.076;2023-04-24T07:50:52;6.90;99.90
37594;DHT22;23441;50.856;6.076;2023-04-24T07:53:18;6.90;99.90
37594;DHT22;23441;50.856;6.076;2023-04-24T07:55:44;6.90;99.90
37594;DHT22;23441;50.856;6.076;2023-04-24T07:58:09;6.80;99.90
37594;DHT22;23441;50.856;6.076;2023-04-24T08:00:35;6.90;99.90
37594;DHT22;23441;50.856;6.076;2023-04-24T08:03:01;6.90;99.90
37594;DHT22;23441;50.856;6.076;2023-04-24T08:05:26;6.90;99.90
37594;DHT22;23441;50.856;6.076;2023-04-24T08:07:54;7.00;99.90
37594;DHT22;23441;50.856;6.076;2023-04-24T08:10:21;7.00;99.90
37594;DHT22;23441;50.856;6.076;2023-04-24T08:12:47;7.00;99.90
37594;DHT22;23441;50.856;6.076;2023-04-24T08:15:13;7.00;99.90
37594;DHT22;23441;50.856;6.076;2023-04-24T08:17:38;7.00;99.90
37594;DHT22;23441;50.856;6.076;2023-04-24T08:20:04;7.00;99.90
37594;DHT22;23441;50.856;6.076;2023-04-24T08:22:31;7.00;99.90
37594;DHT22;23441;50.856;6.076;2023-04-24T08:24:59;7.00;99.90
37594;DHT22;23441;50.856;6.076;2023-04-24T08:27:25;7.00;99.90
37594;DHT22;23441;50.856;6.076;2023-04-24T08:29:53;7.00;99.90
37594;DHT22;23441;50.856;6.076;2023-04-24T08:32:19;7.00;99.90
37594;DHT22;23441;50.856;6.076;2023-04-24T08:34:44;7.00;99.90
37594;DHT22;23441;50.856;6.076;2023-04-24T08:37:10;7.00;99.90
37594;DHT22;23441;50.856;6.076;2023-04-24T08:39:37;6.90;99.90
37594;DHT22;23441;50.856;6.076;2023-04-24T08:42:03;6.90;99.90
37594;DHT22;23441;50.856;6.076;2023-04-24T08:44:36;6.90;99.90
37594;DHT22;23441;50.856;6.076;2023-04-24T08:47:04;6.90;99.90
37594;DHT22;23441;50.856;6.076;2023-04-24T08:49:31;6.90;99.90
37594;DHT22;23441;50.856;6.076;2023-04-24T08:51:57;6.90;99.90
37594;DHT22;23441;50.856;6.076;2023-04-24T08:54:22;6.90;99.90
37594;DHT22;23441;50.856;6.076;2023-04-24T08:56:48;7.00;99.90
37594;DHT22;23441;50.856;6.076;2023-04-24T08:59:15;6.90;99.90
37594;DHT22;23441;50.856;6.076;2023-04-24T09:01:41;6.90;99.90
37594;DHT22;23441;50.856;6.076;2023-04-24T09:04:08;6.90;99.90
37594;DHT22;23441;50.856;6.076;2023-04-24T09:06:38;6.90;99.90
37594;DHT22;23441;50.856;6.076;2023-04-24T09:09:04;7.00;99.90
37594;DHT22;23441;50.856;6.076;2023-04-24T09:11:31;7.00;99.90
37594;DHT22;23441;50.856;6.076;2023-04-24T09:13:58;6.90;99.90
37594;DHT22;23441;50.856;6.076;2023-04-24T09:16:25;6.90;99.90
37594;DHT22;23441;50.856;6.076;2023-04-24T09:18:51;6.90;99.90
37594;DHT22;23441;50.856;6.076;2023-04-24T09:21:18;6.90;99.90
37594;DHT22;23441;50.856;6.076;2023-04-24T09:23:45;6.90;99.90
37594;DHT22;23441;50.856;6.076;2023-04-24T09:26:11;6.90;99.90
37594;DHT22;23441;50.856;6.076;2023-04-24T09:28:39;6.90;99.90
37594;DHT22;23441;50.856;6.076;2023-04-24T09:31:11;7.00;99.90
37594;DHT22;23441;50.856;6.076;2023-04-24T09:33:37;7.30;99.90
37594;DHT22;23441;50.856;6.076;2023-04-24T09:36:03;7.40;99.90
37594;DHT22;23441;50.856;6.076;2023-04-24T09:38:33;7.40;99.90
37594;DHT22;23441;50.856;6.076;2023-04-24T09:41:00;7.50;99.90
37594;DHT22;23441;50.856;6.076;2023-04-24T09:43:28;7.60;99.90
37594;DHT22;23441;50.856;6.076;2023-04-24T09:45:56;7.80;99.90
37594;DHT22;23441;50.856;6.076;2023-04-24T09:48:33;8.10;99.90
37594;DHT22;23441;50.856;6.076;2023-04-24T09:51:00;8.40;99.90
37594;DHT22;23441;50.856;6.076;2023-04-24T09:53:27;8.70;99.90
37594;DHT22;23441;50.856;6.076;2023-04-24T09:55:53;8.90;99.90
37594;DHT22;23441;50.856;6.076;2023-04-24T09:58:25;9.10;99.90
37594;DHT22;23441;50.856;6.076;2023-04-24T10:00:55;9.00;99.90
37594;DHT22;23441;50.856;6.076;2023-04-24T10:03:24;8.80;99.90
37594;DHT22;23441;50.856;6.076;2023-04-24T10:05:52;8.60;99.90
37594;DHT22;23441;50.856;6.076;2023-04-24T10:08:17;8.40;99.90
37594;DHT22;23441;50.856;6.076;2023-04-24T10:10:44;8.30;99.90
37594;DHT22;23441;50.856;6.076;2023-04-24T10:13:12;8.30;99.90
37594;DHT22;23441;50.856;6.076;2023-04-24T10:15:38;8.20;99.90
37594;DHT22;23441;50.856;6.076;2023-04-24T10:18:06;8.10;99.90
37594;DHT22;23441;50.856;6.076;2023-04-24T10:20:33;8.10;99.90
37594;DHT22;23441;50.856;6.076;2023-04-24T10:22:59;8.10;99.90
37594;DHT22;23441;50.856;6.076;2023-04-24T10:25:30;8.30;99.90
37594;DHT22;23441;50.856;6.076;2023-04-24T10:27:57;8.50;99.90
37594;DHT22;23441;50.856;6.076;2023-04-24T10:30:29;8.80;99.90
37594;DHT22;23441;50.856;6.076;2023-04-24T10:32:55;8.90;99.90
37594;DHT22;23441;50.856;6.076;2023-04-24T10:35:22;9.10;99.90
37594;DHT22;23441;50.856;6.076;2023-04-24T10:37:56;9.40;99.90
37594;DHT22;23441;50.856;6.076;2023-04-24T10:40:27;9.80;99.90
37594;DHT22;23441;50.856;6.076;2023-04-24T10:42:56;10.10;99.90
37594;DHT22;23441;50.856;6.076;2023-04-24T10:45:23;10.40;99.90
37594;DHT22;23441;50.856;6.076;2023-04-24T10:50:18;10.10;99.90
37594;DHT22;23441;50.856;6.076;2023-04-24T10:52:45;10.10;99.90
37594;DHT22;23441;50.856;6.076;2023-04-24T10:55:13;10.40;99.90
37594;DHT22;23441;50.856;6.076;2023-04-24T10:57:40;10.60;99.90
37594;DHT22;23441;50.856;6.076;2023-04-24T11:00:25;10.60;99.90
37594;DHT22;23441;50.856;6.076;2023-04-24T11:02:53;10.40;99.90
37594;DHT22;23441;50.856;6.076;2023-04-24T11:05:20;10.40;99.90
37594;DHT22;23441;50.856;6.076;2023-04-24T11:10:50;10.30;99.90
37594;DHT22;23441;50.856;6.076;2023-04-24T11:13:23;10.50;99.90
37594;DHT22;23441;50.856;6.076;2023-04-24T11:16:14;10.50;99.90
37594;DHT22;23441;50.856;6.076;2023-04-24T11:18:42;10.50;99.90
37594;DHT22;23441;50.856;6.076;2023-04-24T11:21:18;10.50;99.90
37594;DHT22;23441;50.856;6.076;2023-04-24T11:23:45;10.50;99.90
37594;DHT22;23441;50.856;6.076;2023-04-24T11:28:46;10.40;99.90
37594;DHT22;23441;50.856;6.076;2023-04-24T11:31:36;10.50;99.90
37594;DHT22;23441;50.856;6.076;2023-04-24T11:34:13;10.80;99.90
37594;DHT22;23441;50.856;6.076;2023-04-24T11:36:40;11.00;99.90
37594;DHT22;23441;50.856;6.076;2023-04-24T11:39:08;11.20;99.90
37594;DHT22;23441;50.856;6.076;2023-04-24T11:41:34;11.30;99.90
37594;DHT22;23441;50.856;6.076;2023-04-24T11:44:01;11.30;99.90
37594;DHT22;23441;50.856;6.076;2023-04-24T11:46:29;11.00;99.90
37594;DHT22;23441;50.856;6.076;2023-04-24T11:48:56;10.90;99.90
37594;DHT22;23441;50.856;6.076;2023-04-24T11:51:23;11.00;99.90
37594;DHT22;23441;50.856;6.076;2023-04-24T11:53:49;11.20;99.90
37594;DHT22;23441;50.856;6.076;2023-04-24T11:56:18;11.10;99.90
37594;DHT22;23441;50.856;6.076;2023-04-24T11:58:45;11.10;99.90
37594;DHT22;23441;50.856;6.076;2023-04-24T12:01:11;10.90;99.90
37594;DHT22;23441;50.856;6.076;2023-04-24T12:03:37;10.80;99.90
37594;DHT22;23441;50.856;6.076;2023-04-24T12:06:10;10.80;99.90
37594;DHT22;23441;50.856;6.076;2023-04-24T12:08:36;10.80;99.90
37594;DHT22;23441;50.856;6.076;2023-04-24T12:11:04;10.80;99.90
37594;DHT22;23441;50.856;6.076;2023-04-24T12:13:33;10.70;99.90
37594;DHT22;23441;50.856;6.076;2023-04-24T12:15:59;10.60;99.90
37594;DHT22;23441;50.856;6.076;2023-04-24T12:18:25;10.50;99.90
37594;DHT22;23441;50.856;6.076;2023-04-24T12:20:51;10.40;99.90
37594;DHT22;23441;50.856;6.076;2023-04-24T12:23:37;10.50;99.90
37594;DHT22;23441;50.856;6.076;2023-04-24T12:26:04;10.90;99.90
37594;DHT22;23441;50.856;6.076;2023-04-24T12:28:38;11.50;99.90
37594;DHT22;23441;50.856;6.076;2023-04-24T12:31:04;11.70;99.90
37594;DHT22;23441;50.856;6.076;2023-04-24T12:33:35;11.90;99.90
37594;DHT22;23441;50.856;6.076;2023-04-24T12:36:00;11.70;99.90
37594;DHT22;23441;50.856;6.076;2023-04-24T12:38:27;11.40;99.90
37594;DHT22;23441;50.856;6.076;2023-04-24T12:41:08;11.20;99.90
37594;DHT22;23441;50.856;6.076;2023-04-24T12:43:35;11.30;99.90
37594;DHT22;23441;50.856;6.076;2023-04-24T12:46:01;11.30;99.90
37594;DHT22;23441;50.856;6.076;2023-04-24T12:48:27;11.50;99.90
37594;DHT22;23441;50.856;6.076;2023-04-24T12:50:53;11.50;99.90
37594;DHT22;23441;50.856;6.076;2023-04-24T12:53:19;11.30;99.90
37594;DHT22;23441;50.856;6.076;2023-04-24T12:55:44;11.20;99.90
37594;DHT22;23441;50.856;6.076;2023-04-24T12:58:12;11.30;99.90
37594;DHT22;23441;50.856;6.076;2023-04-24T13:00:38;11.30;99.90
37594;DHT22;23441;50.856;6.076;2023-04-24T13:03:04;11.30;99.90
37594;DHT22;23441;50.856;6.076;2023-04-24T13:05:30;11.30;99.90
37594;DHT22;23441;50.856;6.076;2023-04-24T13:07:56;11.50;99.90
37594;DHT22;23441;50.856;6.076;2023-04-24T13:10:22;11.60;99.90
37594;DHT22;23441;50.856;6.076;2023-04-24T13:12:48;11.80;99.90
37594;DHT22;23441;50.856;6.076;2023-04-24T13:15:13;11.80;99.90
37594;DHT22;23441;50.856;6.076;2023-04-24T13:17:39;11.90;99.90
37594;DHT22;23441;50.856;6.076;2023-04-24T13:20:05;12.10;99.90
37594;DHT22;23441;50.856;6.076;2023-04-24T13:22:31;12.10;99.90
37594;DHT22;23441;50.856;6.076;2023-04-24T13:24:57;12.10;99.90
37594;DHT22;23441;50.856;6.076;2023-04-24T13:27:22;11.90;99.90
37594;DHT22;23441;50.856;6.076;2023-04-24T13:29:48;11.80;99.90
37594;DHT22;23441;50.856;6.076;2023-04-24T13:32:14;11.70;99.90
37594;DHT22;23441;50.856;6.076;2023-04-24T13:34:40;11.60;99.90
37594;DHT22;23441;50.856;6.076;2023-04-24T13:37:05;11.70;99.90
37594;DHT22;23441;50.856;6.076;2023-04-24T13:39:31;11.80;99.90
37594;DHT22;23441;50.856;6.076;2023-04-24T13:41:57;12.00;99.90
37594;DHT22;23441;50.856;6.076;2023-04-24T13:44:23;12.10;99.90
37594;DHT22;23441;50.856;6.076;2023-04-24T13:46:52;12.30;99.90
37594;DHT22;23441;50.856;6.076;2023-04-24T13:49:20;12.40;99.90
37594;DHT22;23441;50.856;6.076;2023-04-24T13:51:46;12.20;99.90
37594;DHT22;23441;50.856;6.076;2023-04-24T13:54:12;12.20;99.90
37594;DHT22;23441;50.856;6.076;2023-04-24T13:56:42;12.20;99.90
37594;DHT22;23441;50.856;6.076;2023-04-24T13:59:08;12.10;99.90
37594;DHT22;23441;50.856;6.076;2023-04-24T14:01:34;12.00;99.90
37594;DHT22;23441;50.856;6.076;2023-04-24T14:03:59;11.90;99.90
37594;DHT22;23441;50.856;6.076;2023-04-24T14:06:25;11.80;99.90
37594;DHT22;23441;50.856;6.076;2023-04-24T14:08:51;12.10;99.90
37594;DHT22;23441;50.856;6.076;2023-04-24T14:11:18;12.40;99.90
37594;DHT22;23441;50.856;6.076;2023-04-24T14:13:44;12.30;99.90
37594;DHT22;23441;50.856;6.076;2023-04-24T14:16:10;12.00;99.90
37594;DHT22;23441;50.856;6.076;2023-04-24T14:18:36;12.00;99.90
37594;DHT22;23441;50.856;6.076;2023-04-24T14:21:03;12.00;99.90
37594;DHT22;23441;50.856;6.076;2023-04-24T14:23:29;12.30;99.90
37594;DHT22;23441;50.856;6.076;2023-04-24T14:25:55;12.30;99.90
37594;DHT22;23441;50.856;6.076;2023-04-24T14:28:20;12.70;99.90
37594;DHT22;23441;50.856;6.076;2023-04-24T14:30:47;13.00;99.90
37594;DHT22;23441;50.856;6.076;2023-04-24T14:33:14;13.00;99.90
37594;DHT22;23441;50.856;6.076;2023-04-24T14:35:40;13.20;99.90
37594;DHT22;23441;50.856;6.076;2023-04-24T14:38:07;12.90;99.90
37594;DHT22;23441;50.856;6.076;2023-04-24T14:40:33;12.50;99.90
37594;DHT22;23441;50.856;6.076;2023-04-24T14:42:59;12.50;99.90
37594;DHT22;23441;50.856;6.076;2023-04-24T14:45:25;12.60;99.90
37594;DHT22;23441;50.856;6.076;2023-04-24T14:47:51;12.40;99.90
37594;DHT22;23441;50.856;6.076;2023-04-24T14:50:17;12.40;99.90
37594;DHT22;23441;50.856;6.076;2023-04-24T14:52:42;12.40;99.90
37594;DHT22;23441;50.856;6.076;2023-04-24T14:55:09;12.50;99.90
37594;DHT22;23441;50.856;6.076;2023-04-24T14:57:35;12.60;99.90
37594;DHT22;23441;50.856;6.076;2023-04-24T15:00:02;12.70;99.90
37594;DHT22;23441;50.856;6.076;2023-04-24T15:02:30;12.60;99.90
37594;DHT22;23441;50.856;6.076;2023-04-24T15:04:56;12.50;99.90
37594;DHT22;23441;50.856;6.076;2023-04-24T15:07:21;12.50;99.90
37594;DHT22;23441;50.856;6.076;2023-04-24T15:09:47;12.30;99.90
37594;DHT22;23441;50.856;6.076;2023-04-24T15:12:13;12.30;99.90
37594;DHT22;23441;50.856;6.076;2023-04-24T15:14:38;12.10;99.90
37594;DHT22;23441;50.856;6.076;2023-04-24T15:17:04;12.10;99.90
37594;DHT22;23441;50.856;6.076;2023-04-24T15:19:30;11.90;99.90
37594;DHT22;23441;50.856;6.076;2023-04-24T15:21:56;11.90;99.90
37594;DHT22;23441;50.856;6.076;2023-04-24T15:24:22;11.90;99.90
37594;DHT22;23441;50.856;6.076;2023-04-24T15:26:47;11.90;99.90
37594;DHT22;23441;50.856;6.076;2023-04-24T15:29:13;11.90;99.90
37594;DHT22;23441;50.856;6.076;2023-04-24T15:31:39;12.00;99.90
37594;DHT22;23441;50.856;6.076;2023-04-24T15:34:05;12.00;99.90
37594;DHT22;23441;50.856;6.076;2023-04-24T15:36:31;12.00;99.90
37594;DHT22;23441;50.856;6.076;2023-04-24T15:38:57;11.90;99.90
37594;DHT22;23441;50.856;6.076;2023-04-24T15:41:23;12.00;99.90
37594;DHT22;23441;50.856;6.076;2023-04-24T15:43:48;11.90;99.90
37594;DHT22;23441;50.856;6.076;2023-04-24T15:46:14;12.00;99.90